Mahaffey, Pennsylvania
Current Conditions -  °F | °C
As of 12:54 AM on Thursday 29 Jan 2015 (Local Time) from KFIG Reporting Station
Clear Clear  
Wind Chill: -20°   Ceiling: Unl
Heat Index: -15°   Visibility: 10mi
Dew Point: -18°   Wind: 5mph
Humidity: 80%   Direction: 330°NNW
Pressure: 30.25"   Gusts: NA
Location:  40.87°N, 78.72°W
Report Text: KFIG 290554Z AUTO 33004KT 10SM CLR M15/M18 A3025 RMK AO2 SLP274 T11501178 11072 21150 56009
Loading
Personal Weather Stations






























Interactive Weather Map New forecast layout! Learn more

10-Day Weather Forecast

Advertisements
Track Severe Weather on mobile